createdAt,value
2023-05-02T00:00:45.462Z,7.30
2023-05-02T00:03:14.500Z,7.21
2023-05-02T00:05:43.090Z,7.22
2023-05-02T00:08:18.129Z,7.03
2023-05-02T00:10:47.151Z,7.04
2023-05-02T00:13:15.687Z,7.45
2023-05-02T00:15:45.300Z,7.05
2023-05-02T00:18:13.529Z,7.01
2023-05-02T00:20:42.412Z,7.01
2023-05-02T00:23:12.171Z,7.00
2023-05-02T00:25:46.603Z,7.08
2023-05-02T00:28:15.298Z,7.09
2023-05-02T00:30:48.664Z,7.01
2023-05-02T00:33:16.887Z,6.90
2023-05-02T00:35:45.137Z,6.97
2023-05-02T00:38:13.321Z,6.94
2023-05-02T00:40:46.306Z,6.83
2023-05-02T00:43:14.628Z,6.73
2023-05-02T00:45:46.167Z,6.41
2023-05-02T00:48:17.888Z,6.57
2023-05-02T00:50:46.159Z,6.43
2023-05-02T00:53:14.355Z,6.48
2023-05-02T00:55:43.128Z,6.47
2023-05-02T00:58:14.169Z,6.46
2023-05-02T01:00:59.053Z,6.43
2023-05-02T01:03:40.201Z,6.42
2023-05-02T01:06:24.076Z,6.43
2023-05-02T01:09:03.949Z,6.47
2023-05-02T01:11:49.964Z,6.43
2023-05-02T01:14:20.439Z,6.35
2023-05-02T01:16:49.835Z,6.36
2023-05-02T01:19:30.695Z,6.27
2023-05-02T01:22:02.248Z,6.21
2023-05-02T01:24:38.387Z,6.15
2023-05-02T01:27:17.226Z,6.38
2023-05-02T01:29:48.268Z,6.30
2023-05-02T01:32:17.389Z,6.25
2023-05-02T01:34:48.962Z,6.31
2023-05-02T01:37:19.783Z,6.41
2023-05-02T01:39:49.714Z,6.46
2023-05-02T01:42:19.312Z,6.46
2023-05-02T01:44:50.589Z,6.46
2023-05-02T01:47:20.198Z,6.53
2023-05-02T01:49:48.856Z,6.45
2023-05-02T01:52:17.936Z,6.43
2023-05-02T01:54:46.464Z,6.44
2023-05-02T01:57:16.663Z,6.36
2023-05-02T01:59:46.219Z,6.29
2023-05-02T02:02:17.010Z,6.24
2023-05-02T02:04:48.675Z,5.66
2023-05-02T02:07:17.617Z,6.09
2023-05-02T02:09:45.860Z,6.05
2023-05-02T02:12:24.707Z,5.62
2023-05-02T02:15:01.267Z,6.20
2023-05-02T02:17:38.724Z,6.24
2023-05-02T02:20:11.607Z,6.14
2023-05-02T02:22:42.342Z,6.17
2023-05-02T02:25:15.746Z,5.92
2023-05-02T02:27:44.419Z,5.85
2023-05-02T02:30:13.577Z,5.80
2023-05-02T02:32:43.279Z,5.84
2023-05-02T02:35:12.359Z,5.64
2023-05-02T02:37:51.648Z,5.74
2023-05-02T02:40:31.584Z,5.67
2023-05-02T02:43:12.779Z,5.60
2023-05-02T02:45:56.564Z,5.60
2023-05-02T02:48:34.318Z,5.21
2023-05-02T02:51:12.835Z,5.79
2023-05-02T02:53:59.495Z,5.70
2023-05-02T02:56:34.392Z,5.80
2023-05-02T02:59:15.927Z,5.68
2023-05-02T03:01:50.269Z,5.86
2023-05-02T03:04:22.040Z,5.93
2023-05-02T03:06:51.291Z,5.95
2023-05-02T03:09:19.609Z,5.95
2023-05-02T03:11:50.013Z,5.92
2023-05-02T03:14:19.230Z,5.88
2023-05-02T03:16:47.806Z,5.89
2023-05-02T03:19:17.608Z,5.82
2023-05-02T03:21:47.254Z,5.84
2023-05-02T03:24:20.038Z,5.91
2023-05-02T03:26:49.530Z,5.87
2023-05-02T03:29:23.472Z,5.67
2023-05-02T03:31:51.865Z,5.80
2023-05-02T03:34:22.248Z,5.72
2023-05-02T03:36:53.543Z,5.81
2023-05-02T03:39:22.454Z,5.71
2023-05-02T03:41:50.869Z,5.90
2023-05-02T03:44:22.029Z,5.82
2023-05-02T03:46:50.256Z,5.86
2023-05-02T03:49:19.685Z,5.85
2023-05-02T03:51:49.618Z,6.05
2023-05-02T03:54:25.258Z,5.98
2023-05-02T03:56:55.620Z,6.12
2023-05-02T03:59:29.505Z,6.06
2023-05-02T04:01:58.309Z,6.21
2023-05-02T04:04:43.518Z,6.06
2023-05-02T04:07:19.338Z,6.14
2023-05-02T04:09:53.124Z,6.14
2023-05-02T04:12:32.170Z,6.18
2023-05-02T04:15:00.587Z,6.12
2023-05-02T04:17:30.989Z,6.15
2023-05-02T04:20:00.045Z,6.23
2023-05-02T04:22:31.551Z,6.14
2023-05-02T04:25:06.437Z,6.11
2023-05-02T04:27:36.659Z,6.22
2023-05-02T04:30:06.182Z,5.39
2023-05-02T04:32:34.979Z,6.15
2023-05-02T04:35:06.176Z,6.08
2023-05-02T04:37:34.657Z,6.25
2023-05-02T04:40:04.703Z,6.29
2023-05-02T04:42:33.246Z,6.35
2023-05-02T04:45:18.069Z,6.42
2023-05-02T04:47:47.459Z,6.32
2023-05-02T04:50:16.072Z,6.23
2023-05-02T04:52:44.266Z,6.30
2023-05-02T04:55:13.875Z,6.20
2023-05-02T04:57:42.257Z,6.22
2023-05-02T05:00:15.513Z,6.15
2023-05-02T05:02:44.302Z,6.15
2023-05-02T05:05:14.876Z,6.24
2023-05-02T05:07:43.150Z,6.29
2023-05-02T05:10:13.459Z,6.28
2023-05-02T05:12:46.236Z,6.37
2023-05-02T05:15:15.559Z,6.45
2023-05-02T05:17:47.973Z,6.37
2023-05-02T05:20:16.325Z,6.48
2023-05-02T05:22:44.749Z,6.54
2023-05-02T05:25:16.149Z,6.52
2023-05-02T05:27:46.792Z,6.60
2023-05-02T05:30:16.126Z,6.67
2023-05-02T05:32:45.106Z,6.74
2023-05-02T05:35:13.588Z,6.69
2023-05-02T05:37:43.657Z,6.92
2023-05-02T05:40:16.906Z,7.00
2023-05-02T05:42:49.347Z,6.87
2023-05-02T05:45:24.411Z,6.99
2023-05-02T05:47:52.633Z,7.16
2023-05-02T05:50:21.018Z,7.07
2023-05-02T05:52:49.488Z,7.33
2023-05-02T05:55:19.367Z,7.51
2023-05-02T05:57:48.153Z,7.52
2023-05-02T06:00:17.383Z,7.65
2023-05-02T06:02:49.110Z,7.69
2023-05-02T06:08:29.545Z,7.76
2023-05-02T06:10:59.130Z,7.89
2023-05-02T06:13:27.659Z,7.95
2023-05-02T06:15:56.622Z,7.98
2023-05-02T06:18:25.499Z,8.10
2023-05-02T06:20:53.688Z,8.13
2023-05-02T06:23:21.917Z,8.06
2023-05-02T06:25:50.163Z,8.21
2023-05-02T06:28:19.691Z,8.35
2023-05-02T06:30:47.893Z,8.21
2023-05-02T06:33:16.228Z,8.28
2023-05-02T06:35:44.423Z,8.45
2023-05-02T06:38:12.691Z,8.41
2023-05-02T06:40:45.240Z,8.45
2023-05-02T06:43:13.749Z,8.54
2023-05-02T06:45:43.443Z,8.61
2023-05-02T06:48:12.077Z,8.75
2023-05-02T06:50:40.424Z,8.90
2023-05-02T06:53:08.622Z,8.84
2023-05-02T06:55:36.919Z,8.96
2023-05-02T06:58:05.166Z,9.07
2023-05-02T07:00:33.465Z,9.04
2023-05-02T07:03:03.139Z,9.11
2023-05-02T07:05:31.587Z,9.12
2023-05-02T07:07:59.805Z,9.16
2023-05-02T07:10:28.155Z,9.08
2023-05-02T07:12:56.326Z,9.19
2023-05-02T07:15:24.600Z,9.15
2023-05-02T07:17:52.878Z,9.22
2023-05-02T07:20:22.609Z,9.33
2023-05-02T07:22:51.486Z,9.39
2023-05-02T07:25:20.153Z,9.32
2023-05-02T07:27:48.421Z,9.40
2023-05-02T07:30:16.634Z,9.50
2023-05-02T07:32:45.091Z,9.51
2023-05-02T07:35:13.322Z,9.47
2023-05-02T07:37:42.901Z,9.57
2023-05-02T07:40:11.890Z,9.49
2023-05-02T07:42:41.149Z,9.47
2023-05-02T07:45:10.546Z,9.66
2023-05-02T07:47:39.005Z,9.72
2023-05-02T07:50:09.132Z,9.78
2023-05-02T07:52:37.361Z,9.82
2023-05-02T07:55:08.435Z,10.43
2023-05-02T07:57:36.630Z,9.85
2023-05-02T08:00:10.301Z,9.79
2023-05-02T08:02:45.425Z,10.05
2023-05-02T08:05:15.438Z,10.20
2023-05-02T08:07:44.049Z,10.02
2023-05-02T08:10:18.734Z,10.12
2023-05-02T08:12:47.275Z,10.09
2023-05-02T08:15:15.590Z,10.17
2023-05-02T08:17:43.917Z,10.27
2023-05-02T08:20:12.977Z,10.27
2023-05-02T08:22:41.261Z,10.29
2023-05-02T08:25:10.291Z,10.45
2023-05-02T08:27:39.856Z,10.44
2023-05-02T08:30:09.655Z,10.49
2023-05-02T08:32:38.285Z,10.56
2023-05-02T08:35:08.024Z,10.62
2023-05-02T08:37:36.413Z,10.78
2023-05-02T08:40:05.578Z,10.83
2023-05-02T08:42:34.895Z,10.88
2023-05-02T08:45:06.174Z,10.95
2023-05-02T08:47:34.483Z,11.10
2023-05-02T08:50:04.533Z,10.94
2023-05-02T08:52:34.133Z,11.40
2023-05-02T08:55:03.704Z,11.18
2023-05-02T08:57:32.182Z,11.26
2023-05-02T09:00:00.588Z,11.47
2023-05-02T09:02:49.868Z,11.72
2023-05-02T09:05:25.102Z,11.97
2023-05-02T09:07:53.438Z,12.36
2023-05-02T09:10:23.229Z,12.48
2023-05-02T09:12:51.508Z,12.38
2023-05-02T09:15:21.604Z,12.42
2023-05-02T09:17:51.225Z,12.71
2023-05-02T09:20:19.435Z,12.81
2023-05-02T09:22:52.152Z,12.98
2023-05-02T09:25:21.518Z,13.32
2023-05-02T09:27:54.822Z,13.29
2023-05-02T09:30:25.671Z,13.47
2023-05-02T09:32:56.246Z,13.33
2023-05-02T09:35:24.957Z,12.89
2023-05-02T09:37:54.907Z,12.99
2023-05-02T09:40:24.413Z,13.02
2023-05-02T09:42:53.890Z,13.33
2023-05-02T09:45:24.143Z,13.08
2023-05-02T09:47:54.607Z,13.36
2023-05-02T09:50:37.709Z,13.59
2023-05-02T09:53:08.348Z,13.88
2023-05-02T09:55:36.743Z,14.18
2023-05-02T09:58:06.600Z,14.42
2023-05-02T10:00:42.905Z,14.44
2023-05-02T10:06:10.759Z,15.30
2023-05-02T10:08:40.824Z,15.29
2023-05-02T10:11:18.677Z,15.18
2023-05-02T10:13:48.098Z,15.33
2023-05-02T10:16:24.821Z,14.98
2023-05-02T10:19:10.917Z,15.16
2023-05-02T10:21:44.336Z,15.11
2023-05-02T10:24:13.736Z,15.00
2023-05-02T10:26:42.013Z,15.27
2023-05-02T10:29:10.439Z,14.92
2023-05-02T10:31:41.875Z,14.95
2023-05-02T10:34:13.482Z,14.82
2023-05-02T10:36:41.933Z,14.77
2023-05-02T10:39:10.617Z,14.71
2023-05-02T10:41:40.853Z,14.64
2023-05-02T10:44:09.100Z,14.72
2023-05-02T10:46:40.542Z,14.81
2023-05-02T10:49:10.622Z,14.68
2023-05-02T10:51:42.246Z,14.63
2023-05-02T10:54:24.273Z,14.52
2023-05-02T10:57:08.435Z,14.84
2023-05-02T10:59:42.531Z,15.12
2023-05-02T11:02:50.253Z,15.18
2023-05-02T11:05:19.005Z,15.31
2023-05-02T11:07:48.544Z,15.31
2023-05-02T11:10:29.224Z,15.25
2023-05-02T11:13:01.174Z,15.40
2023-05-02T11:16:00.388Z,15.71
2023-05-02T11:18:28.624Z,15.84
2023-05-02T11:21:29.771Z,15.15
2023-05-02T11:24:40.462Z,15.67
2023-05-02T11:27:39.455Z,15.65
2023-05-02T11:30:09.777Z,15.52
2023-05-02T11:33:16.007Z,15.52
2023-05-02T11:35:46.697Z,15.72
2023-05-02T11:38:17.846Z,15.96
2023-05-02T11:41:08.045Z,15.90
2023-05-02T11:43:36.354Z,15.96
2023-05-02T11:46:05.988Z,16.18
2023-05-02T11:48:34.431Z,16.57
2023-05-02T11:51:07.263Z,16.94
2023-05-02T11:53:41.470Z,17.12
2023-05-02T11:56:11.128Z,17.01
2023-05-02T11:58:39.334Z,16.75
2023-05-02T12:01:14.403Z,16.20
2023-05-02T12:03:52.518Z,16.63
2023-05-02T12:06:21.232Z,16.26
2023-05-02T12:08:55.665Z,16.37
2023-05-02T12:11:27.162Z,15.38
2023-05-02T12:13:58.737Z,16.17
2023-05-02T12:16:27.147Z,15.73
2023-05-02T12:18:58.064Z,15.44
2023-05-02T12:21:26.945Z,15.05
2023-05-02T12:23:55.493Z,14.77
2023-05-02T12:26:29.492Z,14.63
2023-05-02T12:28:58.344Z,14.45
2023-05-02T12:31:28.993Z,14.37
2023-05-02T12:33:59.434Z,14.28
2023-05-02T12:36:29.424Z,14.29
2023-05-02T12:39:00.311Z,14.47
2023-05-02T12:41:35.794Z,14.56
2023-05-02T12:44:05.247Z,14.25
2023-05-02T12:46:33.528Z,14.99
2023-05-02T12:49:08.268Z,15.27
2023-05-02T12:51:37.017Z,14.45
2023-05-02T12:54:06.715Z,15.13
2023-05-02T12:56:43.580Z,14.87
2023-05-02T12:59:27.841Z,14.84
2023-05-02T13:01:56.242Z,14.91
2023-05-02T13:04:35.710Z,14.76
2023-05-02T13:07:04.354Z,14.71
2023-05-02T13:09:32.509Z,14.55
2023-05-02T13:12:03.769Z,15.13
2023-05-02T13:14:32.120Z,15.28
2023-05-02T13:17:00.425Z,15.64
2023-05-02T13:19:31.319Z,15.77
2023-05-02T13:21:59.721Z,15.92
2023-05-02T13:24:28.468Z,16.01
2023-05-02T13:26:56.646Z,15.99
2023-05-02T13:29:26.199Z,15.86
2023-05-02T13:31:54.366Z,15.98
2023-05-02T13:34:22.965Z,15.50
2023-05-02T13:36:51.123Z,16.46
2023-05-02T13:39:19.730Z,15.79
2023-05-02T13:41:47.926Z,16.22
2023-05-02T13:44:16.156Z,16.75
2023-05-02T13:46:45.761Z,16.86
2023-05-02T13:49:13.991Z,15.87
2023-05-02T13:51:42.200Z,16.95
2023-05-02T13:54:10.603Z,17.02
2023-05-02T13:56:39.828Z,16.87
2023-05-02T13:59:09.622Z,16.68
2023-05-02T14:01:40.463Z,16.63
2023-05-02T14:04:34.446Z,16.35
2023-05-02T14:07:26.406Z,15.93
2023-05-02T14:09:55.398Z,15.69
2023-05-02T14:12:23.845Z,15.55
2023-05-02T14:14:52.075Z,15.39
2023-05-02T14:17:20.254Z,15.34
2023-05-02T14:19:49.750Z,15.44
2023-05-02T14:22:18.338Z,15.50
2023-05-02T14:24:46.682Z,15.65
2023-05-02T14:27:18.316Z,15.82
2023-05-02T14:29:46.912Z,16.32
2023-05-02T14:32:15.421Z,16.50
2023-05-02T14:34:43.611Z,16.32
2023-05-02T14:37:13.149Z,16.38
2023-05-02T14:39:42.556Z,16.88
2023-05-02T14:42:10.767Z,16.67
2023-05-02T14:44:38.940Z,16.89
2023-05-02T14:47:07.192Z,16.97
2023-05-02T14:49:35.428Z,17.12
2023-05-02T14:52:03.624Z,17.46
2023-05-02T14:54:33.191Z,17.82
2023-05-02T14:57:02.229Z,18.03
2023-05-02T14:59:31.045Z,18.13
2023-05-02T15:01:59.413Z,18.50
2023-05-02T15:04:28.314Z,18.59
2023-05-02T15:06:58.333Z,18.13
2023-05-02T15:09:27.021Z,17.80
2023-05-02T15:11:56.797Z,17.92
2023-05-02T15:14:25.032Z,17.41
2023-05-02T15:16:53.445Z,17.07
2023-05-02T15:19:22.579Z,17.22
2023-05-02T15:21:53.122Z,17.36
2023-05-02T15:24:21.299Z,17.49
2023-05-02T15:26:49.467Z,17.13
2023-05-02T15:29:19.289Z,17.26
2023-05-02T15:31:47.514Z,16.75
2023-05-02T15:34:16.332Z,16.61
2023-05-02T15:36:44.508Z,16.61
2023-05-02T15:39:12.687Z,16.52
2023-05-02T15:41:41.956Z,16.20
2023-05-02T15:44:10.196Z,16.30
2023-05-02T15:46:40.952Z,16.17
2023-05-02T15:49:09.269Z,16.21
2023-05-02T15:51:37.487Z,16.13
2023-05-02T15:54:06.880Z,15.94
2023-05-02T15:56:35.155Z,16.04
2023-05-02T15:59:03.338Z,15.98
2023-05-02T16:01:31.842Z,16.09
2023-05-02T16:04:01.624Z,16.19
2023-05-02T16:06:30.630Z,16.27
2023-05-02T16:08:58.858Z,16.44
2023-05-02T16:11:28.561Z,16.42
2023-05-02T16:13:57.819Z,16.68
2023-05-02T16:16:26.122Z,16.60
2023-05-02T16:18:54.347Z,16.62
2023-05-02T16:21:23.905Z,16.62
2023-05-02T16:23:52.322Z,16.57
2023-05-02T16:26:21.505Z,16.87
2023-05-02T16:28:49.722Z,17.11
2023-05-02T16:31:17.982Z,17.42
2023-05-02T16:33:46.679Z,17.84
2023-05-02T16:36:15.734Z,18.10
2023-05-02T16:38:45.507Z,17.77
2023-05-02T16:41:13.953Z,17.69
2023-05-02T16:43:42.196Z,17.58
2023-05-02T16:46:10.453Z,17.54
2023-05-02T16:48:38.605Z,17.77
2023-05-02T16:51:07.679Z,17.65
2023-05-02T16:53:35.848Z,17.78
2023-05-02T16:56:06.040Z,17.67
2023-05-02T16:58:34.219Z,17.48
2023-05-02T17:01:02.886Z,17.60
2023-05-02T17:03:31.162Z,16.59
2023-05-02T17:06:03.038Z,17.29
2023-05-02T17:08:32.083Z,17.12
2023-05-02T17:11:00.544Z,16.52
2023-05-02T17:13:30.432Z,16.85
2023-05-02T17:15:59.448Z,16.68
2023-05-02T17:18:27.997Z,16.55
2023-05-02T17:20:56.560Z,16.57
2023-05-02T17:23:24.931Z,16.47
2023-05-02T17:25:53.389Z,16.62
2023-05-02T17:28:21.679Z,16.58
2023-05-02T17:30:54.644Z,16.68
2023-05-02T17:33:23.385Z,16.29
2023-05-02T17:35:51.726Z,16.53
2023-05-02T17:38:20.477Z,16.52
2023-05-02T17:40:48.741Z,16.10
2023-05-02T17:43:16.940Z,15.52
2023-05-02T17:45:45.439Z,16.05
2023-05-02T17:48:15.194Z,16.14
2023-05-02T17:50:44.197Z,16.10
2023-05-02T17:53:12.600Z,16.08
2023-05-02T17:55:40.866Z,16.19
2023-05-02T17:58:09.201Z,16.16
2023-05-02T18:00:38.138Z,15.93
2023-05-02T18:03:30.900Z,15.35
2023-05-02T18:06:00.630Z,15.53
2023-05-02T18:08:31.148Z,15.42
2023-05-02T18:11:03.600Z,15.75
2023-05-02T18:13:32.487Z,15.55
2023-05-02T18:16:01.946Z,15.29
2023-05-02T18:18:30.299Z,15.22
2023-05-02T18:20:59.992Z,15.18
2023-05-02T18:23:28.168Z,14.99
2023-05-02T18:25:56.751Z,14.92
2023-05-02T18:28:25.105Z,14.84
2023-05-02T18:30:53.316Z,14.65
2023-05-02T18:33:21.483Z,14.58
2023-05-02T18:35:50.182Z,14.52
2023-05-02T18:38:20.260Z,14.33
2023-05-02T18:40:48.625Z,14.38
2023-05-02T18:43:16.793Z,14.33
2023-05-02T18:45:45.111Z,14.31
2023-05-02T18:48:13.368Z,14.16
2023-05-02T18:50:41.667Z,14.09
2023-05-02T18:53:09.942Z,14.09
2023-05-02T18:55:39.487Z,13.88
2023-05-02T18:58:07.684Z,13.75
2023-05-02T19:00:37.226Z,13.70
2023-05-02T19:03:05.717Z,13.61
2023-05-02T19:05:34.791Z,13.57
2023-05-02T19:08:04.528Z,13.58
2023-05-02T19:10:32.998Z,13.44
2023-05-02T19:13:02.949Z,13.45
2023-05-02T19:15:31.256Z,13.32
2023-05-02T19:17:59.451Z,13.29
2023-05-02T19:20:30.132Z,13.31
2023-05-02T19:23:17.741Z,13.16
2023-05-02T19:25:47.169Z,12.98
2023-05-02T19:28:17.259Z,12.91
2023-05-02T19:30:46.129Z,12.68
2023-05-02T19:33:14.345Z,12.72
2023-05-02T19:35:42.542Z,12.67
2023-05-02T19:38:10.698Z,12.60
2023-05-02T19:40:38.888Z,12.31
2023-05-02T19:43:07.116Z,12.16
2023-05-02T19:45:36.739Z,12.16
2023-05-02T19:48:05.937Z,12.01
2023-05-02T19:50:34.285Z,12.01
2023-05-02T19:53:04.288Z,11.97
2023-05-02T19:55:58.693Z,11.98
2023-05-02T19:58:27.234Z,11.93
2023-05-02T20:00:57.087Z,11.94
2023-05-02T20:03:25.621Z,11.98
2023-05-02T20:05:57.243Z,12.02
2023-05-02T20:08:30.380Z,11.23
2023-05-02T20:10:58.571Z,11.59
2023-05-02T20:13:31.463Z,11.48
2023-05-02T20:16:01.088Z,11.50
2023-05-02T20:18:29.305Z,11.28
2023-05-02T20:20:57.763Z,11.37
2023-05-02T20:23:26.613Z,11.32
2023-05-02T20:25:54.839Z,11.15
2023-05-02T20:28:23.063Z,11.04
2023-05-02T20:30:51.210Z,11.08
2023-05-02T20:33:23.110Z,10.93
2023-05-02T20:35:56.570Z,10.96
2023-05-02T20:38:24.772Z,10.86
2023-05-02T20:40:53.109Z,10.90
2023-05-02T20:43:22.881Z,10.81
2023-05-02T20:45:51.194Z,10.83
2023-05-02T20:48:20.799Z,10.84
2023-05-02T20:50:55.439Z,10.80
2023-05-02T20:53:24.112Z,11.02
2023-05-02T20:55:52.441Z,10.92
2023-05-02T20:58:20.666Z,10.96
2023-05-02T21:00:52.454Z,11.03
2023-05-02T21:03:22.750Z,11.12
2023-05-02T21:05:54.958Z,10.88
2023-05-02T21:08:25.045Z,11.07
2023-05-02T21:10:54.476Z,10.76
2023-05-02T21:13:23.146Z,10.97
2023-05-02T21:15:51.483Z,10.83
2023-05-02T21:18:22.289Z,10.90
2023-05-02T21:20:50.627Z,10.83
2023-05-02T21:23:18.901Z,10.93
2023-05-02T21:25:47.141Z,10.58
2023-05-02T21:28:15.493Z,10.63
2023-05-02T21:30:43.678Z,10.48
2023-05-02T21:33:12.575Z,10.33
2023-05-02T21:35:42.194Z,10.22
2023-05-02T21:38:10.391Z,10.16
2023-05-02T21:40:38.659Z,10.08
2023-05-02T21:43:07.128Z,10.05
2023-05-02T21:45:35.384Z,9.11
2023-05-02T21:48:03.809Z,9.89
2023-05-02T21:50:33.554Z,9.91
2023-05-02T21:53:03.278Z,9.78
2023-05-02T21:55:31.478Z,9.99
2023-05-02T21:57:59.647Z,10.12
2023-05-02T22:00:28.071Z,9.87
2023-05-02T22:02:57.792Z,10.00
2023-05-02T22:05:27.235Z,9.82
2023-05-02T22:07:56.233Z,9.75
2023-05-02T22:10:51.628Z,9.63
2023-05-02T22:13:19.989Z,9.45
2023-05-02T22:15:50.850Z,9.41
2023-05-02T22:18:19.480Z,9.42
2023-05-02T22:20:48.185Z,9.35
2023-05-02T22:23:16.453Z,9.46
2023-05-02T22:25:46.338Z,9.48
2023-05-02T22:28:15.915Z,9.34
2023-05-02T22:30:44.151Z,9.28
2023-05-02T22:33:13.989Z,9.19
2023-05-02T22:35:42.368Z,9.23
2023-05-02T22:38:10.998Z,9.02
2023-05-02T22:40:39.188Z,9.11
2023-05-02T22:43:08.181Z,9.17
2023-05-02T22:45:38.358Z,9.10
2023-05-02T22:48:07.806Z,9.07
2023-05-02T22:50:36.106Z,9.18
2023-05-02T22:53:04.656Z,9.15
2023-05-02T22:55:32.858Z,9.21
2023-05-02T22:58:01.068Z,9.11
2023-05-02T23:00:29.306Z,9.02
2023-05-02T23:02:59.114Z,9.15
2023-05-02T23:05:27.455Z,9.28
2023-05-02T23:07:55.689Z,9.25
2023-05-02T23:10:23.900Z,9.26
2023-05-02T23:12:52.102Z,9.15
2023-05-02T23:15:20.826Z,9.14
2023-05-02T23:17:49.294Z,9.12
2023-05-02T23:20:20.412Z,9.02
2023-05-02T23:22:48.709Z,8.91
2023-05-02T23:25:17.012Z,8.10
2023-05-02T23:27:45.693Z,8.84
2023-05-02T23:30:14.258Z,8.87
2023-05-02T23:32:42.713Z,8.79
2023-05-02T23:35:12.348Z,8.80
2023-05-02T23:37:42.773Z,8.81
2023-05-02T23:40:11.606Z,8.81
2023-05-02T23:42:40.456Z,8.79
2023-05-02T23:45:10.224Z,8.82
2023-05-02T23:47:38.963Z,8.66
2023-05-02T23:50:09.768Z,8.69
2023-05-02T23:52:38.087Z,8.60
2023-05-02T23:55:10.549Z,8.66
2023-05-02T23:57:39.170Z,8.54
